createdAt,value
2018-03-21T18:59:45.622Z,1005.9
2018-03-21T19:00:46.963Z,1005.9
2018-03-21T19:01:48.354Z,1005.9
2018-03-21T19:02:49.744Z,1005.9
2018-03-21T19:03:51.154Z,1005.9
2018-03-21T19:04:52.556Z,1005.9
2018-03-21T19:05:53.947Z,1005.9
2018-03-21T19:06:55.344Z,1005.9
2018-03-21T19:07:56.740Z,1005.9
2018-03-21T19:08:58.133Z,1005.9
2018-03-21T19:09:59.518Z,1005.9
2018-03-21T19:11:00.934Z,1005.9
2018-03-21T19:12:02.331Z,1005.9
2018-03-21T19:13:03.714Z,1005.9
2018-03-21T19:14:05.142Z,1005.8
2018-03-21T19:15:06.552Z,1005.9
2018-03-21T19:16:07.949Z,1005.9
2018-03-21T19:17:09.351Z,1005.9
2018-03-21T19:18:10.745Z,1005.9
2018-03-21T19:19:12.141Z,1005.8
2018-03-21T19:20:13.532Z,1005.9
2018-03-21T19:21:14.925Z,1005.9
2018-03-21T19:22:16.337Z,1005.9
2018-03-21T19:23:17.730Z,1005.9
2018-03-21T19:24:19.206Z,1005.9
2018-03-21T19:25:20.594Z,1005.9
2018-03-21T19:26:23.593Z,1005.9
2018-03-21T19:27:24.982Z,1005.8
2018-03-21T19:28:26.388Z,1005.8
2018-03-21T19:29:27.782Z,1005.8
2018-03-21T19:30:29.170Z,1005.8
2018-03-21T19:31:30.568Z,1005.8
2018-03-21T19:32:31.962Z,1005.8
2018-03-21T19:33:33.355Z,1005.8
2018-03-21T19:34:34.758Z,1005.8
2018-03-21T19:35:36.152Z,1005.8
2018-03-21T19:36:38.643Z,1005.8
2018-03-21T19:37:40.032Z,1005.8
2018-03-21T19:38:41.442Z,1005.8
2018-03-21T19:39:43.002Z,1005.7
2018-03-21T19:40:44.337Z,1005.8
2018-03-21T19:41:45.768Z,1005.8
2018-03-21T19:42:47.230Z,1005.8
2018-03-21T19:43:48.692Z,1005.8
2018-03-21T19:44:50.181Z,1005.7
2018-03-21T19:45:51.724Z,1005.8
2018-03-21T19:46:53.253Z,1005.8
2018-03-21T19:47:54.788Z,1005.7
2018-03-21T19:48:56.279Z,1005.7
2018-03-21T19:49:57.840Z,1005.7
2018-03-21T19:50:59.363Z,1005.7
2018-03-21T19:52:00.814Z,1005.7
2018-03-21T19:53:02.287Z,1005.7
2018-03-21T19:54:03.883Z,1005.7
2018-03-21T19:55:05.318Z,1005.7
2018-03-21T19:56:06.735Z,1005.6
2018-03-21T19:57:08.172Z,1005.6
2018-03-21T19:58:09.608Z,1005.7
2018-03-21T19:59:11.115Z,1005.7
2018-03-21T20:00:12.502Z,1005.7
2018-03-21T20:01:13.929Z,1005.7
2018-03-21T20:02:15.397Z,1005.7
2018-03-21T20:03:16.859Z,1005.7
2018-03-21T20:04:18.326Z,1005.7
2018-03-21T20:05:19.814Z,1005.7
2018-03-21T20:06:21.386Z,1005.6
2018-03-21T20:07:22.903Z,1005.6
2018-03-21T20:08:24.473Z,1005.6
2018-03-21T20:09:26.037Z,1005.6
2018-03-21T20:10:27.594Z,1005.6
2018-03-21T20:11:29.064Z,1005.6
2018-03-21T20:12:30.653Z,1005.5
2018-03-21T20:13:32.163Z,1005.5
2018-03-21T20:14:33.744Z,1005.5
2018-03-21T20:15:35.287Z,1005.5
2018-03-21T20:16:36.844Z,1005.5
2018-03-21T20:17:38.696Z,1005.5
2018-03-21T20:18:40.572Z,1005.5
2018-03-21T20:19:42.113Z,1005.4
2018-03-21T20:20:43.731Z,1005.5
2018-03-21T20:21:45.416Z,1005.4
2018-03-21T20:22:46.897Z,1005.5
2018-03-21T20:23:48.400Z,1005.5
2018-03-21T20:24:49.964Z,1005.5
2018-03-21T20:25:51.543Z,1005.4
2018-03-21T20:26:53.136Z,1005.4
2018-03-21T20:27:54.661Z,1005.5
2018-03-21T20:28:56.161Z,1005.4
2018-03-21T20:29:57.849Z,1005.4
2018-03-21T20:30:59.928Z,1005.4
2018-03-21T20:32:01.996Z,1005.4
2018-03-21T20:33:04.666Z,1005.3
2018-03-21T20:34:06.261Z,1005.3
2018-03-21T20:35:07.783Z,1005.3
2018-03-21T20:36:09.342Z,1005.3
2018-03-21T20:37:10.778Z,1005.3
2018-03-21T20:38:12.207Z,1005.2
2018-03-21T20:39:13.698Z,1005.3
2018-03-21T20:40:15.258Z,1005.2
2018-03-21T20:41:16.837Z,1005.2
2018-03-21T20:42:18.325Z,1005.2
2018-03-21T20:43:19.798Z,1005.2
2018-03-21T20:44:21.287Z,1005.2
2018-03-21T20:45:22.841Z,1005.2
2018-03-21T20:46:24.380Z,1005.2
2018-03-21T20:47:25.995Z,1005.2
2018-03-21T20:48:27.452Z,1005.1
2018-03-21T20:49:28.983Z,1005.2
2018-03-21T20:50:30.460Z,1005.1
2018-03-21T20:51:31.971Z,1005.2
2018-03-21T20:52:33.553Z,1005.2
2018-03-21T20:53:35.204Z,1005.2
2018-03-21T20:54:36.863Z,1005.2
2018-03-21T20:55:38.379Z,1005.2
2018-03-21T20:56:39.912Z,1005.2
2018-03-21T20:57:41.411Z,1005.2
2018-03-21T20:58:42.977Z,1005.2
2018-03-21T20:59:44.462Z,1005.1
2018-03-21T21:00:45.895Z,1005.1
2018-03-21T21:01:47.438Z,1005.1
2018-03-21T21:02:48.962Z,1005.1
2018-03-21T21:03:50.466Z,1005.1
2018-03-21T21:04:52.178Z,1005.0
2018-03-21T21:05:53.711Z,1005.0
2018-03-21T21:06:55.196Z,1005.0
2018-03-21T21:07:56.731Z,1005.0
2018-03-21T21:08:58.299Z,1005.0
2018-03-21T21:09:59.818Z,1005.0
2018-03-21T21:11:01.334Z,1005.0
2018-03-21T21:12:02.847Z,1005.0
2018-03-21T21:13:04.363Z,1005.0
2018-03-21T21:14:05.925Z,1005.0
2018-03-21T21:15:07.471Z,1005.0
2018-03-21T21:16:08.986Z,1005.0
2018-03-21T21:17:10.541Z,1004.9
2018-03-21T21:18:12.062Z,1004.9
2018-03-21T21:19:53.023Z,1004.9
2018-03-21T21:21:33.918Z,1004.9
2018-03-21T21:23:14.827Z,1004.8
2018-03-21T21:24:16.214Z,1004.8
2018-03-21T21:25:17.603Z,1004.8
2018-03-21T21:26:32.823Z,1004.9
2018-03-21T21:27:31.368Z,1004.9
2018-03-21T21:28:32.757Z,1004.8
2018-03-21T21:29:34.166Z,1004.8
2018-03-21T21:30:35.650Z,1004.8
2018-03-21T21:31:37.050Z,1004.8
2018-03-21T21:32:38.448Z,1004.8
2018-03-21T21:33:39.869Z,1004.8
2018-03-21T21:34:41.300Z,1004.8
2018-03-21T21:35:42.694Z,1004.8
2018-03-21T21:36:44.180Z,1004.7
2018-03-21T21:37:45.585Z,1004.8
2018-03-21T21:38:47.019Z,1004.7
2018-03-21T21:39:48.415Z,1004.8
2018-03-21T21:40:49.829Z,1004.7
2018-03-21T21:41:51.219Z,1004.7
2018-03-21T21:42:52.616Z,1004.8
2018-03-21T21:43:54.019Z,1004.8
2018-03-21T21:44:55.418Z,1004.8
2018-03-21T21:45:56.795Z,1004.7
2018-03-21T21:46:58.181Z,1004.7
2018-03-21T21:47:59.574Z,1004.7
2018-03-21T21:49:00.981Z,1004.7
2018-03-21T21:50:02.367Z,1004.7
2018-03-21T21:51:03.767Z,1004.7
2018-03-21T21:52:05.151Z,1004.7
2018-03-21T21:53:06.538Z,1004.7
2018-03-21T21:54:07.935Z,1004.7
2018-03-21T21:55:09.333Z,1004.6
2018-03-21T21:56:10.722Z,1004.6
2018-03-21T21:57:12.119Z,1004.7
2018-03-21T21:58:13.506Z,1004.6
2018-03-21T21:59:14.903Z,1004.6
2018-03-21T22:00:16.282Z,1004.7
2018-03-21T22:01:17.673Z,1004.6
2018-03-21T22:02:19.069Z,1004.6
2018-03-21T22:03:20.460Z,1004.6
2018-03-21T22:04:21.853Z,1004.5
2018-03-21T22:06:02.717Z,1004.5
2018-03-21T22:07:04.108Z,1004.5
2018-03-21T22:08:05.509Z,1004.5
2018-03-21T22:09:06.900Z,1004.5
2018-03-21T22:10:08.289Z,1004.5
2018-03-21T22:11:09.679Z,1004.5
2018-03-21T22:12:11.070Z,1004.4
2018-03-21T22:13:12.465Z,1004.4
2018-03-21T22:14:13.852Z,1004.4
2018-03-21T22:15:15.243Z,1004.4
2018-03-21T22:16:16.627Z,1004.4
2018-03-21T22:17:18.021Z,1004.3
2018-03-21T22:18:19.427Z,1004.3
2018-03-21T22:19:20.813Z,1004.3
2018-03-21T22:20:22.193Z,1004.3
2018-03-21T22:21:23.585Z,1004.4
2018-03-21T22:22:24.974Z,1004.4
2018-03-21T22:23:26.375Z,1004.4
2018-03-21T22:24:27.781Z,1004.4
2018-03-21T22:25:29.300Z,1004.4
2018-03-21T22:26:30.691Z,1004.4
2018-03-21T22:27:32.093Z,1004.4
2018-03-21T22:28:33.547Z,1004.4
2018-03-21T22:29:34.940Z,1004.3
2018-03-21T22:30:36.341Z,1004.3
2018-03-21T22:31:37.731Z,1004.3
2018-03-21T22:32:39.137Z,1004.4
2018-03-21T22:33:40.518Z,1004.3
2018-03-21T22:34:41.907Z,1004.3
2018-03-21T22:35:43.297Z,1004.3
2018-03-21T22:36:44.681Z,1004.3
2018-03-21T22:37:46.078Z,1004.3
2018-03-21T22:38:47.467Z,1004.3
2018-03-21T22:39:48.876Z,1004.3
2018-03-21T22:40:50.259Z,1004.3
2018-03-21T22:41:51.665Z,1004.3
2018-03-21T22:42:53.081Z,1004.3
2018-03-21T22:43:54.495Z,1004.3
2018-03-21T22:44:55.972Z,1004.3
2018-03-21T22:45:57.365Z,1004.2
2018-03-21T22:46:58.762Z,1004.2
2018-03-21T22:48:00.149Z,1004.3
2018-03-21T22:49:01.542Z,1004.2
2018-03-21T22:50:02.936Z,1004.2
2018-03-21T22:51:04.320Z,1004.1
2018-03-21T22:52:05.714Z,1004.2
2018-03-21T22:53:07.109Z,1004.2
2018-03-21T22:54:08.492Z,1004.1
2018-03-21T22:55:09.904Z,1004.1
2018-03-21T22:56:11.287Z,1004.1
2018-03-21T22:57:12.675Z,1004.2
2018-03-21T22:58:14.091Z,1004.1
2018-03-21T22:59:15.503Z,1004.1
2018-03-21T23:00:16.896Z,1004.1
2018-03-21T23:01:18.294Z,1004.1
2018-03-21T23:02:19.688Z,1004.1
2018-03-21T23:03:21.082Z,1004.0
2018-03-21T23:04:22.507Z,1004.0
2018-03-21T23:05:23.903Z,1004.1
2018-03-21T23:06:25.288Z,1004.0
2018-03-21T23:07:26.686Z,1004.1
2018-03-21T23:08:28.106Z,1004.1
2018-03-21T23:09:29.499Z,1004.1
2018-03-21T23:10:30.885Z,1004.0
2018-03-21T23:11:32.311Z,1004.1
2018-03-21T23:12:33.710Z,1004.0
2018-03-21T23:13:35.106Z,1004.0
2018-03-21T23:14:36.490Z,1004.0
2018-03-21T23:15:38.074Z,1003.9
2018-03-21T23:16:39.521Z,1003.9
2018-03-21T23:17:40.934Z,1003.9
2018-03-21T23:18:42.360Z,1003.9
2018-03-21T23:19:43.859Z,1003.9
2018-03-21T23:20:45.346Z,1003.9
2018-03-21T23:21:46.913Z,1003.9
2018-03-21T23:22:48.494Z,1003.8
2018-03-21T23:23:50.149Z,1003.8
2018-03-21T23:24:52.070Z,1003.8
2018-03-21T23:25:53.491Z,1003.8
2018-03-21T23:26:55.522Z,1003.8
2018-03-21T23:27:57.508Z,1003.8
2018-03-21T23:28:59.425Z,1003.7
2018-03-21T23:30:01.510Z,1003.8
2018-03-21T23:31:03.312Z,1003.7
2018-03-21T23:32:05.007Z,1003.7
2018-03-21T23:33:06.564Z,1003.7
2018-03-21T23:34:08.748Z,1003.8
2018-03-21T23:35:10.536Z,1003.7
2018-03-21T23:36:12.214Z,1003.7
2018-03-21T23:37:13.739Z,1003.7
2018-03-21T23:38:15.275Z,1003.7
2018-03-21T23:39:16.793Z,1003.6
2018-03-21T23:40:18.436Z,1003.6
2018-03-21T23:41:19.978Z,1003.6
2018-03-21T23:42:21.601Z,1003.6
2018-03-21T23:43:23.127Z,1003.6
2018-03-21T23:44:24.667Z,1003.6
2018-03-21T23:45:26.121Z,1003.6
2018-03-21T23:46:27.672Z,1003.6
2018-03-21T23:47:29.246Z,1003.7
2018-03-21T23:48:30.743Z,1003.6
2018-03-21T23:49:32.268Z,1003.7
2018-03-21T23:50:33.724Z,1003.6
2018-03-21T23:51:35.232Z,1003.5
2018-03-21T23:52:36.779Z,1003.6
2018-03-21T23:53:38.287Z,1003.5
2018-03-21T23:54:39.800Z,1003.5
2018-03-21T23:55:41.252Z,1003.5
2018-03-21T23:56:43.371Z,1003.4
2018-03-21T23:57:44.904Z,1003.4
2018-03-21T23:58:46.726Z,1003.5
2018-03-21T23:59:48.848Z,1003.4
